Home   Weather   Germany   Hamm   Past weeks
Flag for Germany

Past Weather in Hamm, North Rhine-Westphalia, Germany — Yesterday and Last 2 Weeks

Currently: 50 °F. Sunny. (Weather station: Dortmund / Wickede, Germany). See more current weather

Past Weather in Hamm — Graph

°F

Hamm Temperature Yesterday

Maximum temperature yesterday: 63 °F (at 1:50 pm)
Minimum temperature yesterday: 30 °F (at 6:50 am)
Average temperature yesterday: 46 °F

High & Low Weather Summary for the Past Weeks

 TemperatureHumidityPressure
High66 °F (Feb 21, 3:20 pm)100% (Feb 26, 3:20 am)30.72 "Hg (Feb 26, 3:20 am)
Low30 °F (Mar 2, 6:50 am)27% (Mar 2, 3:20 pm)29.71 "Hg (Feb 18, 6:20 pm)
Average50 °F70%30.25 "Hg
* Reported Feb 16 8:20 am — Mar 3 8:50 am, Hamm. Weather by CustomWeather, © 2021

Note: Actual official high and low records may vary slightly from our data, if they occured in-between our weather recording intervals... More about our weather records

Hamm Weather History for the Previous 24 Hours

Scroll right to see more
 ConditionsComfort  
Time TempWeatherWind HumidityBarometerVisibility
8:50 am
Wed, Mar 3
45 °FSunny.12 mph66%30.36 "Hg10 mi
8:20 am45 °FSunny.10 mph66%30.36 "Hg10 mi
7:50 am43 °FSunny.12 mph71%30.36 "Hg10 mi
7:20 am43 °FSunny.12 mph66%30.36 "Hg10 mi
6:50 am43 °FClear.10 mph66%30.36 "Hg10 mi
6:20 am43 °FClear.12 mph71%30.36 "Hg10 mi
5:50 am43 °FClear.12 mph71%30.36 "Hg10 mi
5:20 am43 °FClear.12 mph71%30.36 "Hg10 mi
4:50 am45 °FClear.12 mph66%30.36 "HgN/A
4:20 am45 °FClear.12 mph66%30.36 "HgN/A
3:50 am46 °FClear.12 mph62%30.36 "HgN/A
3:20 am46 °FClear.12 mph62%30.36 "HgN/A
2:50 am45 °FClear.10 mph66%30.39 "HgN/A
2:20 am45 °FClear.10 mph66%30.39 "HgN/A
1:50 am45 °FClear.10 mph66%30.39 "HgN/A
1:20 am46 °FClear.12 mph62%30.39 "HgN/A
12:50 am48 °FClear.10 mph58%30.39 "HgN/A
12:20 am48 °FClear.12 mph58%30.39 "HgN/A
11:50 pm
Tue, Mar 2
46 °FClear.10 mph62%30.39 "HgN/A
11:20 pm46 °FClear.10 mph66%30.39 "HgN/A
10:50 pm46 °FClear.9 mph66%30.39 "HgN/A
10:20 pm46 °FClear.9 mph66%30.42 "Hg10 mi
9:50 pm46 °FClear.9 mph62%30.39 "Hg10 mi
9:20 pm46 °FClear.7 mph62%30.39 "Hg10 mi
8:50 pm50 °FClear.7 mph54%30.39 "Hg10 mi
8:20 pm50 °FClear.7 mph54%30.42 "Hg10 mi
7:50 pm52 °FClear.6 mph47%30.39 "Hg10 mi
7:20 pm54 °FClear.3 mph47%30.39 "Hg10 mi
6:50 pm57 °FClear.3 mph36%30.39 "Hg10 mi
6:20 pm59 °FClear.3 mph36%30.39 "Hg10 mi
5:50 pm61 °FSunny.3 mph31%30.39 "Hg10 mi
5:20 pm59 °FPassing clouds.5 mph36%30.39 "HgN/A
4:50 pm61 °FPassing clouds.6 mph34%30.39 "HgN/A
4:20 pm63 °FSunny.6 mph34%30.39 "Hg10 mi
3:50 pm63 °FSunny.6 mph32%30.42 "Hg10 mi
3:20 pm63 °FPassing clouds.5 mph27%30.42 "HgN/A
2:50 pm63 °FPassing clouds.6 mph32%30.42 "HgN/A
2:20 pm63 °FPassing clouds.7 mph32%30.42 "HgN/A
1:50 pm63 °FPassing clouds.7 mph32%30.42 "HgN/A
12:50 pm59 °FPassing clouds.7 mph42%30.45 "HgN/A
12:20 pm57 °FSunny.6 mph51%30.45 "Hg10 mi
11:50 am55 °FPassing clouds.5 mph59%30.45 "HgN/A
11:20 am52 °FPassing clouds.5 mph62%30.45 "HgN/A
10:20 am50 °FSunny.5 mph62%30.48 "Hg10 mi
Weather by CustomWeather, © 2021

See weather overview